Terminal Aerodrome Forecast
Issued by NWS

Home | Current Version | Previous Version | Text Only | Print | Product List | Glossary On
Versions: 1 2 3 4 5 6 7 8 9 10 11 12 13 14 15 16
231
FTUS43 KICT 181120
TAFCNU
TAF
KCNU 181120Z 1812/1912 32022G31KT P6SM FEW009 BKN015
     FM181700 33027G36KT P6SM OVC045
     FM181900 33027G36KT P6SM BKN100
     FM182300 33015G23KT P6SM SKC
     FM190500 32005KT P6SM SKC=

USA.gov is the U.S. government's official web portal to all federal, state and local government web resources and services.